createdAt,value
2022-12-26T00:00:37.601Z,10.20
2022-12-26T00:03:08.094Z,10.20
2022-12-26T00:05:39.456Z,10.20
2022-12-26T00:08:09.986Z,10.10
2022-12-26T00:10:40.005Z,10.20
2022-12-26T00:13:38.500Z,10.10
2022-12-26T00:15:59.960Z,10.10
2022-12-26T00:18:29.901Z,10.20
2022-12-26T00:20:59.865Z,10.10
2022-12-26T00:23:30.054Z,10.20
2022-12-26T00:26:03.961Z,10.20
2022-12-26T00:28:34.296Z,10.20
2022-12-26T00:31:11.318Z,10.20
2022-12-26T00:33:42.175Z,10.20
2022-12-26T00:36:12.682Z,10.30
2022-12-26T00:38:43.844Z,10.20
2022-12-26T00:41:15.389Z,10.20
2022-12-26T00:43:45.340Z,10.10
2022-12-26T00:46:15.877Z,10.20
2022-12-26T00:48:46.157Z,10.30
2022-12-26T00:51:16.737Z,10.10
2022-12-26T00:53:47.521Z,10.10
2022-12-26T00:56:17.431Z,10.10
2022-12-26T00:58:47.583Z,10.20
2022-12-26T01:01:23.904Z,10.20
2022-12-26T01:03:55.488Z,10.20
2022-12-26T01:06:25.578Z,10.20
2022-12-26T01:08:56.326Z,10.20
2022-12-26T01:11:44.109Z,10.20
2022-12-26T01:14:18.693Z,10.20
2022-12-26T01:16:49.578Z,10.20
2022-12-26T01:19:19.454Z,10.20
2022-12-26T01:21:49.218Z,10.10
2022-12-26T01:24:19.216Z,10.10
2022-12-26T01:26:49.488Z,10.10
2022-12-26T01:29:19.283Z,10.10
2022-12-26T01:31:49.303Z,10.00
2022-12-26T01:34:19.254Z,10.10
2022-12-26T01:36:49.178Z,10.20
2022-12-26T01:39:20.016Z,10.30
2022-12-26T01:41:49.361Z,10.30
2022-12-26T01:44:56.358Z,10.40
2022-12-26T01:47:30.507Z,10.40
2022-12-26T01:50:00.531Z,10.50
2022-12-26T01:52:38.435Z,10.50
2022-12-26T01:55:13.020Z,10.50
2022-12-26T01:57:47.694Z,10.50
2022-12-26T02:00:18.587Z,10.50
2022-12-26T02:03:06.853Z,10.60
2022-12-26T02:05:37.182Z,10.50
2022-12-26T02:08:15.998Z,10.40
2022-12-26T02:11:05.633Z,10.40
2022-12-26T02:13:39.273Z,10.40
2022-12-26T02:16:11.964Z,10.30
2022-12-26T02:18:41.952Z,10.30
2022-12-26T02:21:47.011Z,10.40
2022-12-26T02:24:54.957Z,10.60
2022-12-26T02:27:48.945Z,10.70
2022-12-26T02:30:44.133Z,10.90
2022-12-26T02:33:38.574Z,11.00
2022-12-26T02:36:38.399Z,11.00
2022-12-26T02:39:47.178Z,11.10
2022-12-26T02:42:43.561Z,11.10
2022-12-26T02:46:10.242Z,11.10
2022-12-26T02:49:00.283Z,11.10
2022-12-26T02:51:59.785Z,11.10
2022-12-26T02:54:59.944Z,11.10
2022-12-26T02:57:51.204Z,10.90
2022-12-26T03:00:40.243Z,11.00
2022-12-26T03:03:30.608Z,11.10
2022-12-26T03:06:40.642Z,11.20
2022-12-26T03:09:30.941Z,11.40
2022-12-26T03:12:20.957Z,11.50
2022-12-26T03:15:00.098Z,11.60
2022-12-26T03:17:37.991Z,11.70
2022-12-26T03:20:14.753Z,11.80
2022-12-26T03:23:07.514Z,12.00
2022-12-26T03:26:01.945Z,12.10
2022-12-26T03:28:32.277Z,12.30
2022-12-26T03:31:07.812Z,12.50
2022-12-26T03:34:02.111Z,12.50
2022-12-26T03:36:52.528Z,12.70
2022-12-26T03:40:12.549Z,12.80
2022-12-26T03:43:12.849Z,12.90
2022-12-26T03:46:32.939Z,13.00
2022-12-26T03:49:43.248Z,13.10
2022-12-26T03:52:53.315Z,13.10
2022-12-26T03:56:14.154Z,13.10
2022-12-26T03:59:03.745Z,13.20
2022-12-26T04:01:54.131Z,13.40
2022-12-26T04:04:44.130Z,13.50
2022-12-26T04:07:34.496Z,13.60
2022-12-26T04:10:24.461Z,13.70
2022-12-26T04:13:14.869Z,13.80
2022-12-26T04:16:04.865Z,13.90
2022-12-26T04:19:09.528Z,14.00
2022-12-26T04:22:05.270Z,13.90
2022-12-26T04:24:56.116Z,14.00
2022-12-26T04:27:45.659Z,13.90
2022-12-26T04:30:25.958Z,14.00
2022-12-26T04:33:16.070Z,14.00
2022-12-26T04:36:06.301Z,14.10
2022-12-26T04:38:56.371Z,14.20
2022-12-26T04:41:46.680Z,14.30
2022-12-26T04:44:18.849Z,14.20
2022-12-26T04:46:51.071Z,14.40
2022-12-26T04:49:37.128Z,14.50
2022-12-26T04:52:12.138Z,14.60
2022-12-26T04:54:42.644Z,14.70
2022-12-26T06:05:28.665Z,16.80
2022-12-26T06:07:58.517Z,16.90
2022-12-26T06:10:31.237Z,17.00
2022-12-26T06:13:03.276Z,17.00
2022-12-26T06:15:33.387Z,17.10
2022-12-26T06:18:03.317Z,17.20
2022-12-26T06:20:34.449Z,17.20
2022-12-26T06:23:10.501Z,17.30
2022-12-26T06:25:40.592Z,17.50
2022-12-26T06:28:10.738Z,17.50
2022-12-26T06:30:40.785Z,17.60
2022-12-26T06:33:10.595Z,17.60
2022-12-26T06:35:40.563Z,17.70
2022-12-26T06:38:10.631Z,17.80
2022-12-26T06:40:45.397Z,17.80
2022-12-26T06:43:15.272Z,17.90
2022-12-26T06:45:45.137Z,17.90
2022-12-26T06:48:15.107Z,17.80
2022-12-26T06:50:45.160Z,17.90
2022-12-26T06:53:15.077Z,17.90
2022-12-26T06:55:45.062Z,18.00
2022-12-26T06:58:15.184Z,18.00
2022-12-26T07:00:45.323Z,18.00
2022-12-26T07:03:15.587Z,18.10
2022-12-26T07:05:45.588Z,18.00
2022-12-26T07:08:15.666Z,18.00
2022-12-26T07:10:45.844Z,17.90
2022-12-26T07:13:16.743Z,17.90
2022-12-26T07:15:46.791Z,17.80
2022-12-26T07:18:16.644Z,17.80
2022-12-26T07:20:46.880Z,17.90
2022-12-26T07:23:17.679Z,17.90
2022-12-26T07:25:50.621Z,17.80
2022-12-26T07:28:20.691Z,17.90
2022-12-26T07:30:52.107Z,18.00
2022-12-26T07:33:22.474Z,18.10
2022-12-26T07:35:52.226Z,18.10
2022-12-26T07:38:22.189Z,18.10
2022-12-26T07:40:52.315Z,18.10
2022-12-26T07:43:22.165Z,18.00
2022-12-26T07:45:52.180Z,18.00
2022-12-26T07:48:22.153Z,18.00
2022-12-26T07:50:53.197Z,17.80
2022-12-26T07:53:23.121Z,17.80
2022-12-26T07:55:53.316Z,17.80
2022-12-26T07:58:23.255Z,17.90
2022-12-26T08:00:53.409Z,18.00
2022-12-26T08:03:23.748Z,18.00
2022-12-26T08:05:54.657Z,17.90
2022-12-26T08:08:30.210Z,17.80
2022-12-26T08:11:09.521Z,17.90
2022-12-26T08:13:39.675Z,18.10
2022-12-26T08:16:11.164Z,18.00
2022-12-26T08:18:41.273Z,18.10
2022-12-26T08:21:11.336Z,18.10
2022-12-26T08:23:41.710Z,18.20
2022-12-26T08:26:14.718Z,18.10
2022-12-26T08:28:44.633Z,18.00
2022-12-26T08:31:16.158Z,17.90
2022-12-26T08:33:46.117Z,17.90
2022-12-26T08:36:18.871Z,17.90
2022-12-26T08:38:49.244Z,17.90
2022-12-26T08:41:19.454Z,17.90
2022-12-26T08:44:25.766Z,18.00
2022-12-26T08:46:43.837Z,18.00
2022-12-26T08:49:14.378Z,17.80
2022-12-26T08:51:44.479Z,17.80
2022-12-26T08:54:14.500Z,17.80
2022-12-26T08:56:44.566Z,17.80
2022-12-26T08:59:14.904Z,17.70
2022-12-26T09:01:45.776Z,17.80
2022-12-26T09:04:16.728Z,18.00
2022-12-26T09:06:46.728Z,17.80
2022-12-26T09:09:16.874Z,17.90
2022-12-26T09:11:47.270Z,17.80
2022-12-26T09:14:16.599Z,17.70
2022-12-26T09:16:50.991Z,17.60
2022-12-26T09:19:22.557Z,17.50
2022-12-26T09:22:13.343Z,17.50
2022-12-26T09:24:43.489Z,17.40
2022-12-26T09:27:13.607Z,17.50
2022-12-26T09:29:43.641Z,17.50
2022-12-26T09:32:13.508Z,17.60
2022-12-26T09:34:43.580Z,17.60
2022-12-26T09:37:13.540Z,17.60
2022-12-26T09:39:43.455Z,17.50
2022-12-26T09:42:46.272Z,17.60
2022-12-26T09:45:25.108Z,17.50
2022-12-26T09:48:13.757Z,17.50
2022-12-26T09:50:44.144Z,17.50
2022-12-26T09:53:16.895Z,17.60
2022-12-26T09:56:08.599Z,17.50
2022-12-26T09:59:01.831Z,17.60
2022-12-26T10:01:36.536Z,17.60
2022-12-26T10:04:30.378Z,17.50
2022-12-26T10:07:23.796Z,17.50
2022-12-26T10:10:14.087Z,17.40
2022-12-26T10:13:13.161Z,17.40
2022-12-26T10:15:53.264Z,17.50
2022-12-26T10:18:48.187Z,17.50
2022-12-26T10:21:45.035Z,17.40
2022-12-26T10:24:23.314Z,17.30
2022-12-26T10:27:03.991Z,17.20
2022-12-26T10:29:42.162Z,17.20
2022-12-26T10:32:27.557Z,17.20
2022-12-26T10:34:58.179Z,17.10
2022-12-26T10:37:33.336Z,17.10
2022-12-26T10:40:39.993Z,17.00
2022-12-26T10:43:32.657Z,16.90
2022-12-26T10:46:30.771Z,16.90
2022-12-26T10:49:01.742Z,16.70
2022-12-26T10:51:32.412Z,16.70
2022-12-26T10:54:02.396Z,16.70
2022-12-26T10:56:35.422Z,16.70
2022-12-26T10:59:07.167Z,16.60
2022-12-26T11:01:41.171Z,16.50
2022-12-26T11:04:53.271Z,16.40
2022-12-26T11:07:15.200Z,16.40
2022-12-26T11:09:47.744Z,16.30
2022-12-26T11:12:41.248Z,16.20
2022-12-26T11:15:36.410Z,16.10
2022-12-26T11:18:32.415Z,16.00
2022-12-26T11:21:23.118Z,15.90
2022-12-26T11:23:54.384Z,15.90
2022-12-26T11:26:32.226Z,15.90
2022-12-26T11:29:15.614Z,15.80
2022-12-26T11:31:59.825Z,15.80
2022-12-26T11:34:38.598Z,15.70
2022-12-26T11:37:21.010Z,15.70
2022-12-26T11:39:54.393Z,15.60
2022-12-26T11:42:26.881Z,15.50
2022-12-26T11:44:59.639Z,15.50
2022-12-26T11:47:31.562Z,15.40
2022-12-26T11:50:12.253Z,15.40
2022-12-26T11:52:54.555Z,15.30
2022-12-26T11:55:34.446Z,15.30
2022-12-26T11:58:22.627Z,15.30
2022-12-26T12:01:14.580Z,15.20
2022-12-26T12:03:52.471Z,15.10
2022-12-26T12:06:45.748Z,15.10
2022-12-26T12:09:31.646Z,15.00
2022-12-26T12:12:25.142Z,14.80
2022-12-26T12:15:25.711Z,14.80
2022-12-26T12:18:16.090Z,14.80
2022-12-26T12:21:10.271Z,14.80
2022-12-26T12:23:57.830Z,14.70
2022-12-26T12:27:04.714Z,14.70
2022-12-26T12:29:55.153Z,14.80
2022-12-26T12:32:51.999Z,14.70
2022-12-26T12:35:50.081Z,14.70
2022-12-26T12:38:43.981Z,14.60
2022-12-26T12:41:39.934Z,14.70
2022-12-26T12:44:34.295Z,14.70
2022-12-26T12:47:37.403Z,14.60
2022-12-26T12:50:37.261Z,14.70
2022-12-26T12:53:23.666Z,14.60
2022-12-26T12:56:19.104Z,14.60
2022-12-26T12:59:07.841Z,14.50
2022-12-26T13:01:45.882Z,14.50
2022-12-26T13:04:31.489Z,14.40
2022-12-26T13:07:09.229Z,14.40
2022-12-26T13:09:50.168Z,14.40
2022-12-26T13:12:26.355Z,14.30
2022-12-26T13:15:02.652Z,14.40
2022-12-26T13:17:45.849Z,14.40
2022-12-26T13:20:24.681Z,14.30
2022-12-26T13:23:23.468Z,14.40
2022-12-26T13:26:11.061Z,14.40
2022-12-26T13:28:56.698Z,14.30
2022-12-26T13:31:27.006Z,14.40
2022-12-26T13:33:57.856Z,14.40
2022-12-26T13:36:45.653Z,14.40
2022-12-26T13:39:36.122Z,14.40
2022-12-26T13:42:39.950Z,14.50
2022-12-26T13:45:40.641Z,14.50
2022-12-26T13:48:41.078Z,14.40
2022-12-26T13:51:40.921Z,14.40
2022-12-26T13:54:15.322Z,14.40
2022-12-26T13:57:18.489Z,14.30
2022-12-26T14:00:11.510Z,14.30
2022-12-26T14:03:20.595Z,14.30
2022-12-26T14:06:14.169Z,14.20
2022-12-26T14:09:01.993Z,14.20
2022-12-26T14:11:51.428Z,14.10
2022-12-26T14:14:42.409Z,14.00
2022-12-26T14:17:43.725Z,13.90
2022-12-26T14:20:42.690Z,13.90
2022-12-26T14:23:47.397Z,13.90
2022-12-26T14:26:49.073Z,13.90
2022-12-26T14:29:42.196Z,13.90
2022-12-26T14:32:31.059Z,13.80
2022-12-26T14:35:34.066Z,13.80
2022-12-26T14:38:24.872Z,13.90
2022-12-26T14:41:03.348Z,13.90
2022-12-26T14:43:42.711Z,13.90
2022-12-26T14:46:44.625Z,13.90
2022-12-26T14:49:38.589Z,13.90
2022-12-26T14:52:35.189Z,13.90
2022-12-26T14:55:34.831Z,13.90
2022-12-26T14:58:35.410Z,13.90
2022-12-26T15:01:44.382Z,13.90
2022-12-26T15:04:39.023Z,13.80
2022-12-26T15:07:45.503Z,13.70
2022-12-26T15:10:45.997Z,13.70
2022-12-26T15:13:45.120Z,13.70
2022-12-26T15:16:41.638Z,13.60
2022-12-26T15:19:36.260Z,13.60
2022-12-26T15:22:36.910Z,13.50
2022-12-26T15:25:36.890Z,13.50
2022-12-26T15:28:37.117Z,13.50
2022-12-26T15:31:29.043Z,13.50
2022-12-26T15:34:37.266Z,13.50
2022-12-26T15:37:30.136Z,13.50
2022-12-26T15:40:26.790Z,13.50
2022-12-26T15:43:27.766Z,13.40
2022-12-26T15:46:20.979Z,13.40
2022-12-26T15:49:28.108Z,13.30
2022-12-26T15:52:28.594Z,13.30
2022-12-26T15:55:28.845Z,13.30
2022-12-26T15:58:08.287Z,13.20
2022-12-26T16:00:49.799Z,13.20
2022-12-26T16:03:46.789Z,13.10
2022-12-26T16:06:48.001Z,13.10
2022-12-26T16:09:46.295Z,13.00
2022-12-26T16:12:42.424Z,12.90
2022-12-26T16:15:20.472Z,12.90
2022-12-26T16:17:50.715Z,13.00
2022-12-26T16:20:49.468Z,13.00
2022-12-26T16:23:24.317Z,13.00
2022-12-26T16:25:57.476Z,13.00
2022-12-26T16:28:31.305Z,12.90
2022-12-26T16:31:02.560Z,12.90
2022-12-26T16:33:36.860Z,13.00
2022-12-26T16:36:07.033Z,12.90
2022-12-26T16:38:37.151Z,12.80
2022-12-26T16:41:23.827Z,12.80
2022-12-26T16:43:55.880Z,12.70
2022-12-26T16:46:31.437Z,12.70
2022-12-26T16:49:03.600Z,12.70
2022-12-26T16:51:46.938Z,12.70
2022-12-26T16:54:41.275Z,12.50
2022-12-26T16:57:20.615Z,12.50
2022-12-26T17:00:03.440Z,12.60
2022-12-26T17:02:37.441Z,12.50
2022-12-26T17:05:20.285Z,12.60
2022-12-26T17:07:53.642Z,12.50
2022-12-26T17:10:28.077Z,12.50
2022-12-26T17:13:01.940Z,12.60
2022-12-26T17:15:35.766Z,12.60
2022-12-26T17:18:43.545Z,12.50
2022-12-26T17:21:34.641Z,12.50
2022-12-26T17:24:28.098Z,12.50
2022-12-26T17:27:20.188Z,12.50
2022-12-26T17:29:56.519Z,12.40
2022-12-26T17:32:46.828Z,12.30
2022-12-26T17:35:28.382Z,12.20
2022-12-26T17:38:03.070Z,12.20
2022-12-26T17:40:37.958Z,12.10
2022-12-26T17:43:22.451Z,12.10
2022-12-26T17:45:52.676Z,12.00
2022-12-26T17:48:22.582Z,12.10
2022-12-26T17:50:58.642Z,12.00
2022-12-26T17:53:33.612Z,11.90
2022-12-26T17:56:08.468Z,11.90
2022-12-26T17:58:38.395Z,11.80
2022-12-26T18:01:08.441Z,11.80
2022-12-26T18:03:38.641Z,11.80
2022-12-26T18:06:09.445Z,11.70
2022-12-26T18:08:43.304Z,11.70
2022-12-26T18:11:16.087Z,11.70
2022-12-26T18:13:46.512Z,11.70
2022-12-26T18:16:20.833Z,11.60
2022-12-26T18:18:51.276Z,11.70
2022-12-26T18:21:21.278Z,11.60
2022-12-26T18:23:51.094Z,11.60
2022-12-26T18:26:27.152Z,11.50
2022-12-26T18:28:57.613Z,11.50
2022-12-26T18:31:29.632Z,11.50
2022-12-26T18:34:00.007Z,11.50
2022-12-26T18:36:36.159Z,11.40
2022-12-26T18:39:07.756Z,11.50
2022-12-26T18:41:38.527Z,11.40
2022-12-26T18:44:07.764Z,11.40
2022-12-26T18:46:37.830Z,11.40
2022-12-26T18:49:07.789Z,11.30
2022-12-26T18:51:41.019Z,11.40
2022-12-26T18:54:10.973Z,11.40
2022-12-26T18:56:40.936Z,11.30
2022-12-26T18:59:13.585Z,11.20
2022-12-26T19:01:43.537Z,11.30
2022-12-26T19:04:17.175Z,11.30
2022-12-26T19:06:47.166Z,11.20
2022-12-26T19:09:18.478Z,11.20
2022-12-26T19:11:48.318Z,11.20
2022-12-26T19:14:24.559Z,11.10
2022-12-26T19:16:54.489Z,11.10
2022-12-26T19:19:28.316Z,11.10
2022-12-26T19:21:58.992Z,11.00
2022-12-26T19:24:29.133Z,10.90
2022-12-26T19:26:59.077Z,10.90
2022-12-26T19:29:29.113Z,10.90
2022-12-26T19:31:59.161Z,10.90
2022-12-26T19:34:30.641Z,10.90
2022-12-26T19:37:00.720Z,10.80
2022-12-26T19:39:31.740Z,10.80
2022-12-26T19:42:01.858Z,10.80
2022-12-26T19:44:33.365Z,10.80
2022-12-26T19:47:12.333Z,10.80
2022-12-26T19:49:43.671Z,10.80
2022-12-26T19:52:13.610Z,10.80
2022-12-26T19:54:43.673Z,10.70
2022-12-26T19:57:13.564Z,10.60
2022-12-26T19:59:43.639Z,10.70
2022-12-26T20:02:15.520Z,10.60
2022-12-26T20:04:45.928Z,10.50
2022-12-26T20:07:15.830Z,10.50
2022-12-26T20:09:46.022Z,10.50
2022-12-26T20:12:16.113Z,10.50
2022-12-26T20:14:46.081Z,10.50
2022-12-26T20:17:16.073Z,10.40
2022-12-26T20:19:46.197Z,10.40
2022-12-26T20:22:16.381Z,10.40
2022-12-26T20:24:48.494Z,10.30
2022-12-26T20:27:19.465Z,10.30
2022-12-26T20:29:49.417Z,10.20
2022-12-26T20:32:19.488Z,10.20
2022-12-26T20:34:49.454Z,10.20
2022-12-26T20:37:20.444Z,10.20
2022-12-26T20:39:50.397Z,10.20
2022-12-26T20:42:21.218Z,10.10
2022-12-26T20:44:50.620Z,10.10
2022-12-26T20:47:20.596Z,10.00
2022-12-26T20:49:50.483Z,10.10
2022-12-26T20:52:20.886Z,10.00
2022-12-26T20:54:50.797Z,10.00
2022-12-26T20:57:20.749Z,10.00
2022-12-26T20:59:50.925Z,10.00
2022-12-26T21:02:21.061Z,10.00
2022-12-26T21:04:51.452Z,10.00
2022-12-26T21:07:21.411Z,9.90
2022-12-26T21:09:51.253Z,9.90
2022-12-26T21:12:21.106Z,9.90
2022-12-26T21:14:51.117Z,9.90
2022-12-26T21:17:21.054Z,9.90
2022-12-26T21:19:51.067Z,9.90
2022-12-26T21:22:21.404Z,9.80
2022-12-26T21:24:51.368Z,9.90
2022-12-26T21:27:21.308Z,9.80
2022-12-26T21:29:51.335Z,9.80
2022-12-26T21:32:21.266Z,9.80
2022-12-26T21:34:51.382Z,9.80
2022-12-26T21:37:38.023Z,9.80
2022-12-26T21:40:08.597Z,9.80
2022-12-26T21:42:38.918Z,9.70
2022-12-26T21:45:09.907Z,9.70
2022-12-26T21:47:39.853Z,9.70
2022-12-26T21:50:10.166Z,9.70
2022-12-26T21:52:40.136Z,9.60
2022-12-26T21:55:29.205Z,9.60
2022-12-26T21:58:01.624Z,9.60
2022-12-26T22:00:32.417Z,9.50
2022-12-26T22:03:19.644Z,9.50
2022-12-26T22:05:49.748Z,9.50
2022-12-26T22:08:19.816Z,9.50
2022-12-26T22:11:00.162Z,9.40
2022-12-26T22:13:30.615Z,9.40
2022-12-26T22:16:09.505Z,9.40
2022-12-26T22:18:46.988Z,9.40
2022-12-26T22:21:22.715Z,9.40
2022-12-26T22:23:53.860Z,9.30
2022-12-26T22:26:25.921Z,9.30
2022-12-26T22:28:56.422Z,9.30
2022-12-26T22:31:30.291Z,9.30
2022-12-26T22:34:05.780Z,9.30
2022-12-26T22:36:36.769Z,9.30
2022-12-26T22:39:07.405Z,9.30
2022-12-26T22:41:37.435Z,9.20
2022-12-26T22:44:07.633Z,9.10
2022-12-26T22:46:39.012Z,9.20
2022-12-26T22:49:08.954Z,9.20
2022-12-26T22:51:38.896Z,9.20
2022-12-26T22:54:08.906Z,9.10
2022-12-26T22:56:38.848Z,9.20
2022-12-26T22:59:08.779Z,9.10
2022-12-26T23:01:38.923Z,9.00
2022-12-26T23:04:09.263Z,9.00
2022-12-26T23:06:39.920Z,9.10
2022-12-26T23:09:15.854Z,9.00
2022-12-26T23:12:05.709Z,9.00
2022-12-26T23:14:36.124Z,9.00
2022-12-26T23:17:12.925Z,9.00
2022-12-26T23:20:04.187Z,9.00
2022-12-26T23:22:34.876Z,8.90
2022-12-26T23:25:05.019Z,8.90
2022-12-26T23:27:44.747Z,8.90
2022-12-26T23:30:23.476Z,8.80
2022-12-26T23:32:55.475Z,8.80
2022-12-26T23:35:26.278Z,8.80
2022-12-26T23:37:55.877Z,8.80
2022-12-26T23:40:26.069Z,8.80
2022-12-26T23:42:56.056Z,8.80
2022-12-26T23:45:25.933Z,8.70
2022-12-26T23:47:56.470Z,8.70
2022-12-26T23:50:26.476Z,8.80
2022-12-26T23:52:56.513Z,8.80
2022-12-26T23:55:26.459Z,8.70
2022-12-26T23:57:58.809Z,8.70
